Time;durP1;ratioP1;P1;durP2;ratioP2;P2;SDS_P1;SDS_P2;PMS_P1;PMS_P2;Temp;Humidity;BMP_temperature;BMP_pressure;BME280_temperature;BME280_humidity;BME280_pressure;Samples;Min_cycle;Max_cycle;Signal;HPM_P1;HPM_P2
2022/12/02 00:03:05;;;;;;;31.90;9.50;;;;;;;;;;10511307;28;20507;-75
2022/12/02 00:08:13;;;;;;;35.35;10.48;;;;;;;;;;10514090;28;20043;-76
2022/12/02 00:13:20;;;;;;;25.83;9.50;;;;;;;;;;10513424;28;20035;-76
2022/12/02 00:18:23;;;;;;;26.33;9.00;;;;;;;;;;10517871;28;20481;-75
2022/12/02 00:23:25;;;;;;;32.72;9.88;;;;;;;;;;10508249;28;20836;-76
2022/12/02 00:28:29;;;;;;;37.33;10.63;;;;;;;;;;10512641;28;20493;-77
2022/12/02 00:33:32;;;;;;;28.50;9.15;;;;;;;;;;10490195;28;20123;-77
2022/12/02 00:38:34;;;;;;;38.28;12.30;;;;;;;;;;10508303;28;20271;-76
2022/12/02 00:48:58;;;;;;;41.25;12.05;;;;;;;;;;10509724;28;20140;-74
2022/12/02 00:54:04;;;;;;;33.47;11.02;;;;;;;;;;10495613;28;20037;-75
2022/12/02 00:59:08;;;;;;;28.60;9.02;;;;;;;;;;10509855;28;21048;-74
2022/12/02 01:04:11;;;;;;;34.38;11.35;;;;;;;;;;10503945;28;20063;-74
2022/12/02 01:09:14;;;;;;;33.05;10.27;;;;;;;;;;10512834;28;20101;-76
2022/12/02 01:14:18;;;;;;;39.20;10.90;;;;;;;;;;10511310;28;20105;-75
2022/12/02 01:19:20;;;;;;;33.60;10.73;;;;;;;;;;10493176;28;20052;-74
2022/12/02 01:24:23;;;;;;;31.50;11.35;;;;;;;;;;10518295;28;20444;-75
2022/12/02 01:29:27;;;;;;;32.55;10.88;;;;;;;;;;10514856;28;20036;-75
2022/12/02 01:34:30;;;;;;;37.88;11.63;;;;;;;;;;10501254;28;20414;-77
2022/12/02 01:39:34;;;;;;;33.55;11.85;;;;;;;;;;10524220;28;20044;-77
2022/12/02 01:44:38;;;;;;;35.40;9.73;;;;;;;;;;10518180;28;20109;-76
2022/12/02 01:49:40;;;;;;;;;;;;;;;;;;10498439;28;20036;-75
2022/12/02 01:54:43;;;;;;;32.78;9.27;;;;;;;;;;10517524;28;19935;-76
2022/12/02 01:59:47;;;;;;;34.55;10.35;;;;;;;;;;10519360;28;20180;-75
2022/12/02 02:04:50;;;;;;;31.67;10.77;;;;;;;;;;10522863;28;20028;-76
2022/12/02 02:09:54;;;;;;;34.90;11.13;;;;;;;;;;10521923;28;20041;-75
2022/12/02 02:14:58;;;;;;;26.73;9.70;;;;;;;;;;10528113;28;20048;-75
2022/12/02 02:20:01;;;;;;;34.20;9.82;;;;;;;;;;10516484;28;20272;-75
2022/12/02 02:25:11;;;;;;;37.75;10.85;;;;;;;;;;10517811;28;20036;-74
2022/12/02 02:30:21;;;;;;;33.53;10.68;;;;;;;;;;10515638;28;20050;-74
2022/12/02 02:35:24;;;;;;;38.33;11.98;;;;;;;;;;10517384;28;20028;-74
2022/12/02 02:40:29;;;;;;;41.75;12.20;;;;;;;;;;10518693;28;20035;-75
2022/12/02 02:45:34;;;;;;;37.50;12.05;;;;;;;;;;10498891;28;20040;-75
2022/12/02 02:50:38;;;;;;;37.67;11.95;;;;;;;;;;10513864;28;20101;-75
2022/12/02 02:55:41;;;;;;;27.88;9.23;;;;;;;;;;10516139;28;20036;-76
2022/12/02 03:00:46;;;;;;;34.35;12.18;;;;;;;;;;10525587;28;20036;-74
2022/12/02 03:05:51;;;;;;;34.03;9.32;;;;;;;;;;10518720;28;20040;-74
2022/12/02 03:10:55;;;;;;;38.67;11.30;;;;;;;;;;10527459;28;20044;-75
2022/12/02 03:15:58;;;;;;;39.28;10.75;;;;;;;;;;10519914;28;20066;-76
2022/12/02 03:21:01;;;;;;;32.88;10.23;;;;;;;;;;10519564;28;20067;-75
2022/12/02 03:26:05;;;;;;;35.50;10.70;;;;;;;;;;10514122;28;20036;-76
2022/12/02 03:31:09;;;;;;;40.47;12.52;;;;;;;;;;10502701;28;20129;-75
2022/12/02 03:36:12;;;;;;;44.35;13.95;;;;;;;;;;10518756;28;20590;-74
2022/12/02 03:41:16;;;;;;;42.25;15.38;;;;;;;;;;10518709;28;20101;-74
2022/12/02 03:46:18;;;;;;;40.05;13.25;;;;;;;;;;10509446;28;20090;-75
2022/12/02 03:51:21;;;;;;;40.67;10.65;;;;;;;;;;10514583;28;20109;-75
2022/12/02 03:56:25;;;;;;;42.28;12.70;;;;;;;;;;10508818;28;20044;-74
2022/12/02 04:01:27;;;;;;;;;;;;;;;;;;10511098;28;20055;-74
2022/12/02 04:06:30;;;;;;;39.63;10.80;;;;;;;;;;10519643;28;19923;-76
2022/12/02 04:11:34;;;;;;;34.85;11.05;;;;;;;;;;10488350;28;20473;-76
2022/12/02 04:16:37;;;;;;;41.22;11.73;;;;;;;;;;10514923;28;20036;-75
2022/12/02 04:21:40;;;;;;;34.47;10.73;;;;;;;;;;10507896;28;20131;-76
2022/12/02 04:26:47;;;;;;;39.58;11.05;;;;;;;;;;10511443;28;20043;-77
2022/12/02 04:31:49;;;;;;;40.53;11.45;;;;;;;;;;10517725;28;20429;-76
2022/12/02 04:36:52;;;;;;;36.28;10.40;;;;;;;;;;10510030;28;20052;-76
2022/12/02 04:41:56;;;;;;;38.25;10.20;;;;;;;;;;10513761;28;20040;-75
2022/12/02 04:46:59;;;;;;;;;;;;;;;;;;10516774;28;20463;-76
2022/12/02 04:52:02;;;;;;;35.70;10.52;;;;;;;;;;10509877;28;19924;-75
2022/12/02 04:57:07;;;;;;;36.63;10.73;;;;;;;;;;10511467;28;20040;-76
2022/12/02 05:02:09;;;;;;;29.92;10.70;;;;;;;;;;10508631;28;20519;-75
2022/12/02 05:07:12;;;;;;;39.33;11.20;;;;;;;;;;10505850;28;20049;-76
2022/12/02 05:12:16;;;;;;;38.40;10.68;;;;;;;;;;10509483;28;20107;-74
2022/12/02 05:17:18;;;;;;;36.33;9.57;;;;;;;;;;10502392;28;20063;-76
2022/12/02 05:22:21;;;;;;;37.78;10.65;;;;;;;;;;10508323;28;20420;-74
2022/12/02 05:27:25;;;;;;;38.10;11.40;;;;;;;;;;10512095;28;20040;-76
2022/12/02 05:32:35;;;;;;;39.95;10.98;;;;;;;;;;10511394;28;20052;-77
2022/12/02 05:37:37;;;;;;;35.03;10.02;;;;;;;;;;10512000;28;20044;-75
2022/12/02 05:42:41;;;;;;;43.17;13.88;;;;;;;;;;10513722;28;20044;-76
2022/12/02 05:47:47;;;;;;;43.42;12.95;;;;;;;;;;10513319;28;20060;-75
2022/12/02 05:52:50;;;;;;;32.45;10.52;;;;;;;;;;10508709;28;20048;-73
2022/12/02 05:57:56;;;;;;;39.17;11.18;;;;;;;;;;10515225;28;20046;-75
2022/12/02 06:03:00;;;;;;;34.95;11.07;;;;;;;;;;10513585;28;20489;-75
2022/12/02 06:08:10;;;;;;;36.45;11.30;;;;;;;;;;10520457;28;20071;-75
2022/12/02 06:13:16;;;;;;;37.28;11.27;;;;;;;;;;10519575;28;20048;-75
2022/12/02 06:18:20;;;;;;;38.97;10.63;;;;;;;;;;10521063;28;20101;-75
2022/12/02 06:23:23;;;;;;;;;;;;;;;;;;10518975;28;20572;-75
2022/12/02 06:28:29;;;;;;;41.50;12.07;;;;;;;;;;10510750;28;19932;-75
2022/12/02 06:33:32;;;;;;;39.58;10.85;;;;;;;;;;10510607;28;20058;-75
2022/12/02 06:38:41;;;;;;;41.17;11.27;;;;;;;;;;10509421;28;20047;-75
2022/12/02 06:49:13;;;;;;;36.85;11.20;;;;;;;;;;10507379;28;20058;-78
2022/12/02 06:54:19;;;;;;;34.88;10.65;;;;;;;;;;10523982;28;20279;-77
2022/12/02 06:59:23;;;;;;;40.67;11.05;;;;;;;;;;10535117;28;20481;-75
2022/12/02 07:04:30;;;;;;;36.67;11.57;;;;;;;;;;10516349;28;20463;-75
2022/12/02 07:09:36;;;;;;;50.47;14.07;;;;;;;;;;10515267;28;20036;-73
2022/12/02 07:14:43;;;;;;;28.55;8.60;;;;;;;;;;10516658;28;20450;-75
2022/12/02 07:19:50;;;;;;;43.20;11.57;;;;;;;;;;10513852;28;20473;-77
2022/12/02 07:24:56;;;;;;;35.65;11.85;;;;;;;;;;10519383;28;20078;-74
2022/12/02 07:30:00;;;;;;;40.72;12.95;;;;;;;;;;10514144;28;20035;-76
2022/12/02 07:35:03;;;;;;;42.30;12.00;;;;;;;;;;10519843;28;20500;-76
2022/12/02 07:40:08;;;;;;;35.70;10.52;;;;;;;;;;10523303;28;20052;-75
2022/12/02 07:45:12;;;;;;;35.33;11.53;;;;;;;;;;10513771;28;20048;-76
2022/12/02 07:50:17;;;;;;;39.10;11.07;;;;;;;;;;10493454;28;20489;-76
2022/12/02 07:55:20;;;;;;;46.90;14.30;;;;;;;;;;10506392;28;20044;-75
2022/12/02 08:00:30;;;;;;;41.00;12.57;;;;;;;;;;10507682;28;20139;-75
2022/12/02 08:05:32;;;;;;;42.60;14.40;;;;;;;;;;10515595;28;20516;-75
2022/12/02 08:10:35;;;;;;;45.92;13.05;;;;;;;;;;10522246;28;20067;-75
2022/12/02 08:15:39;;;;;;;44.75;13.73;;;;;;;;;;10516961;28;20489;-76
2022/12/02 08:20:42;;;;;;;46.03;14.52;;;;;;;;;;10506105;28;20032;-75
2022/12/02 08:25:45;;;;;;;49.25;14.02;;;;;;;;;;10507476;28;20040;-75
2022/12/02 08:30:49;;;;;;;48.10;13.93;;;;;;;;;;10515472;28;20405;-75
2022/12/02 08:35:52;;;;;;;;;;;;;;;;;;10508917;28;20044;-74
2022/12/02 08:40:54;;;;;;;42.97;11.50;;;;;;;;;;10519425;28;19996;-74
2022/12/02 08:46:08;;;;;;;44.67;13.20;;;;;;;;;;10504707;28;20044;-77
2022/12/02 08:51:11;;;;;;;;;;;;;;;;;;10503992;28;20090;-76
2022/12/02 08:56:13;;;;;;;43.42;13.25;;;;;;;;;;10504726;28;20447;-75
2022/12/02 09:01:17;;;;;;;43.53;13.57;;;;;;;;;;10505040;28;20048;-76
2022/12/02 09:06:20;;;;;;;48.20;15.00;;;;;;;;;;10511452;28;20099;-75
2022/12/02 09:11:22;;;;;;;43.13;14.32;;;;;;;;;;10493316;28;20073;-74
2022/12/02 09:16:26;;;;;;;47.17;14.07;;;;;;;;;;10517077;28;20036;-75
2022/12/02 09:21:30;;;;;;;41.00;12.85;;;;;;;;;;10512032;28;20071;-77
2022/12/02 09:26:33;;;;;;;45.17;14.23;;;;;;;;;;10511473;28;20370;-74
2022/12/02 09:31:37;;;;;;;47.13;13.18;;;;;;;;;;10510197;28;20163;-76
2022/12/02 09:36:39;;;;;;;36.00;13.02;;;;;;;;;;10513217;28;20105;-76
2022/12/02 09:41:43;;;;;;;41.67;14.10;;;;;;;;;;10513841;28;20039;-76
2022/12/02 09:46:47;;;;;;;49.83;13.70;;;;;;;;;;10499277;28;20071;-77
2022/12/02 09:51:53;;;;;;;37.63;11.75;;;;;;;;;;10519424;28;20040;-75
2022/12/02 09:56:57;;;;;;;37.28;12.23;;;;;;;;;;10523246;28;20047;-75
2022/12/02 10:02:01;;;;;;;43.10;12.23;;;;;;;;;;10523632;28;20101;-76
2022/12/02 10:07:04;;;;;;;;;;;;;;;;;;10512715;28;20463;-75
2022/12/02 10:12:08;;;;;;;41.97;11.32;;;;;;;;;;10514199;28;19921;-76
2022/12/02 10:17:10;;;;;;;;;;;;;;;;;;10501203;28;20519;-76
2022/12/02 10:22:16;;;;;;;34.70;10.32;;;;;;;;;;10517304;28;19974;-77
2022/12/02 10:27:23;;;;;;;37.90;10.82;;;;;;;;;;10518606;28;20035;-76
2022/12/02 10:32:26;;;;;;;29.70;9.00;;;;;;;;;;10515240;28;20504;-75
2022/12/02 10:37:29;;;;;;;;;;;;;;;;;;10516884;28;20044;-75
2022/12/02 10:42:33;;;;;;;42.75;11.07;;;;;;;;;;10521516;28;19935;-75
2022/12/02 10:47:36;;;;;;;37.50;11.52;;;;;;;;;;10517696;28;20051;-74
2022/12/02 10:52:44;;;;;;;34.50;10.55;;;;;;;;;;10510019;28;20494;-76
2022/12/02 10:57:49;;;;;;;34.83;11.60;;;;;;;;;;10520845;28;20048;-76
2022/12/02 11:02:54;;;;;;;33.03;10.13;;;;;;;;;;10511091;28;20097;-75
2022/12/02 11:07:58;;;;;;;31.73;10.50;;;;;;;;;;10506056;28;20098;-75
2022/12/02 11:13:27;;;;;;;35.97;11.55;;;;;;;;;;10524879;28;20032;-76
2022/12/02 11:18:51;;;;;;;35.17;13.05;;;;;;;;;;10501488;28;20058;-74
2022/12/02 11:24:08;;;;;;;38.97;12.03;;;;;;;;;;10499631;28;20048;-72
2022/12/02 11:29:17;;;;;;;32.33;10.70;;;;;;;;;;10504308;28;20413;-75
2022/12/02 11:34:26;;;;;;;36.55;11.85;;;;;;;;;;10505875;28;20508;-76
2022/12/02 11:39:40;;;;;;;37.75;11.98;;;;;;;;;;10506888;28;20110;-76
2022/12/02 11:44:44;;;;;;;34.72;11.38;;;;;;;;;;10513525;28;20040;-77
2022/12/02 11:49:47;;;;;;;39.85;12.60;;;;;;;;;;10515647;28;20123;-75
2022/12/02 11:55:07;;;;;;;37.40;12.13;;;;;;;;;;10518036;28;20489;-76
2022/12/02 12:00:24;;;;;;;35.30;11.90;;;;;;;;;;10505543;28;20059;-77
2022/12/02 12:05:27;;;;;;;36.60;10.80;;;;;;;;;;10519532;28;20400;-77
2022/12/02 12:10:33;;;;;;;36.95;11.80;;;;;;;;;;10515342;28;20119;-77
2022/12/02 12:15:50;;;;;;;31.63;10.90;;;;;;;;;;10505142;28;20047;-76
2022/12/02 12:20:53;;;;;;;33.30;10.80;;;;;;;;;;10514370;28;20033;-77
2022/12/02 12:25:57;;;;;;;35.35;10.80;;;;;;;;;;10508494;28;20041;-76
2022/12/02 12:31:01;;;;;;;38.63;10.77;;;;;;;;;;10513894;28;20041;-76
2022/12/02 12:36:04;;;;;;;37.17;13.13;;;;;;;;;;10513971;28;20047;-77
2022/12/02 12:41:08;;;;;;;36.03;11.18;;;;;;;;;;10514410;28;20044;-77
2022/12/02 12:46:12;;;;;;;35.20;12.82;;;;;;;;;;10512830;28;20515;-76
2022/12/02 12:51:14;;;;;;;;;;;;;;;;;;10515100;28;20090;-77
2022/12/02 12:56:17;;;;;;;33.47;10.50;;;;;;;;;;10520528;28;19963;-77
2022/12/02 13:01:21;;;;;;;33.17;11.27;;;;;;;;;;10509221;28;20040;-76
2022/12/02 13:06:26;;;;;;;29.10;9.88;;;;;;;;;;10513713;28;20043;-75
2022/12/02 13:11:29;;;;;;;32.08;10.57;;;;;;;;;;10511095;28;20086;-76
2022/12/02 13:16:33;;;;;;;30.83;8.23;;;;;;;;;;10519484;28;20052;-76
2022/12/02 13:21:36;;;;;;;;;;;;;;;;;;10521749;28;20067;-76
2022/12/02 13:26:39;;;;;;;31.60;9.90;;;;;;;;;;10519681;28;19932;-77
2022/12/02 13:31:43;;;;;;;21.70;6.32;;;;;;;;;;10516756;28;20043;-76
2022/12/02 13:36:46;;;;;;;16.30;6.40;;;;;;;;;;10510823;28;20501;-76
2022/12/02 13:41:49;;;;;;;35.47;11.65;;;;;;;;;;10520198;28;20036;-76
2022/12/02 13:46:53;;;;;;;36.50;10.63;;;;;;;;;;10524936;28;20118;-77
2022/12/02 13:52:06;;;;;;;54.22;14.60;;;;;;;;;;10510999;28;20043;-76
2022/12/02 13:57:08;;;;;;;28.10;8.63;;;;;;;;;;10504599;28;20050;-76
2022/12/02 14:02:12;;;;;;;32.03;10.35;;;;;;;;;;10514495;28;20509;-75
2022/12/02 14:07:15;;;;;;;23.70;7.88;;;;;;;;;;10525320;28;20044;-76
2022/12/02 14:12:28;;;;;;;29.45;8.57;;;;;;;;;;10519988;28;20071;-76
2022/12/02 14:17:33;;;;;;;29.60;7.68;;;;;;;;;;10529871;28;20048;-78
2022/12/02 14:22:35;;;;;;;23.52;7.28;;;;;;;;;;10514790;28;20078;-78
2022/12/02 14:27:38;;;;;;;25.17;9.10;;;;;;;;;;10511210;28;20036;-78
2022/12/02 14:32:43;;;;;;;24.85;8.13;;;;;;;;;;10518924;28;20122;-76
2022/12/02 14:37:46;;;;;;;30.58;8.90;;;;;;;;;;10513928;28;20393;-76
2022/12/02 14:42:48;;;;;;;26.75;9.88;;;;;;;;;;10522781;28;20050;-77
2022/12/02 14:47:52;;;;;;;10.65;4.28;;;;;;;;;;10514598;28;20048;-76
2022/12/02 14:52:55;;;;;;;25.92;7.30;;;;;;;;;;10518134;28;20040;-76
2022/12/02 14:57:58;;;;;;;19.23;6.97;;;;;;;;;;10517508;28;20036;-76
2022/12/02 15:03:03;;;;;;;29.88;8.57;;;;;;;;;;10496004;28;20452;-77
2022/12/02 15:08:06;;;;;;;20.48;7.30;;;;;;;;;;10518398;28;20079;-76
2022/12/02 15:13:09;;;;;;;23.30;7.60;;;;;;;;;;10514485;28;20135;-76
2022/12/02 15:18:13;;;;;;;19.40;7.28;;;;;;;;;;10512697;28;20082;-75
2022/12/02 15:23:16;;;;;;;;;;;;;;;;;;10515170;28;20214;-76
2022/12/02 15:28:21;;;;;;;19.58;6.82;;;;;;;;;;10510834;28;19932;-77
2022/12/02 15:33:25;;;;;;;20.92;7.82;;;;;;;;;;10508401;28;20028;-75
2022/12/02 15:38:28;;;;;;;28.20;9.38;;;;;;;;;;10507499;28;20048;-75
2022/12/02 15:43:32;;;;;;;22.90;6.97;;;;;;;;;;10509180;28;20133;-76
2022/12/02 15:48:36;;;;;;;24.05;7.18;;;;;;;;;;10506111;28;20263;-77
2022/12/02 15:53:39;;;;;;;19.40;7.57;;;;;;;;;;10508167;28;20381;-75
2022/12/02 15:58:42;;;;;;;21.75;6.10;;;;;;;;;;10515123;28;20048;-76
2022/12/02 16:03:46;;;;;;;6.90;2.83;;;;;;;;;;10515400;28;20047;-77
2022/12/02 16:08:49;;;;;;;15.07;4.88;;;;;;;;;;10512069;28;20043;-75
2022/12/02 16:13:57;;;;;;;21.75;6.78;;;;;;;;;;10513062;28;20047;-77
2022/12/02 16:19:01;;;;;;;6.65;2.63;;;;;;;;;;10510915;28;20028;-76
2022/12/02 16:24:04;;;;;;;11.68;4.13;;;;;;;;;;10510659;28;20102;-77
2022/12/02 16:29:07;;;;;;;17.83;6.68;;;;;;;;;;10515548;28;20044;-77
2022/12/02 16:34:11;;;;;;;28.15;7.60;;;;;;;;;;10518348;28;20044;-77
2022/12/02 16:39:14;;;;;;;12.38;4.75;;;;;;;;;;10519329;28;20037;-76
2022/12/02 16:44:17;;;;;;;27.92;9.57;;;;;;;;;;10521538;28;20036;-76
2022/12/02 16:49:21;;;;;;;17.20;6.10;;;;;;;;;;10506717;28;20048;-75
2022/12/02 16:54:24;;;;;;;24.65;7.88;;;;;;;;;;10516764;28;20096;-76
2022/12/02 16:59:26;;;;;;;13.50;3.58;;;;;;;;;;10507368;28;20036;-76
2022/12/02 17:04:31;;;;;;;23.67;7.33;;;;;;;;;;10509545;28;20043;-76
2022/12/02 17:09:34;;;;;;;18.92;4.43;;;;;;;;;;10510511;28;20264;-75
2022/12/02 17:14:36;;;;;;;8.68;3.63;;;;;;;;;;10507455;28;21384;-77
2022/12/02 17:19:40;;;;;;;23.05;7.53;;;;;;;;;;10505534;28;20117;-76
2022/12/02 17:24:43;;;;;;;23.80;8.18;;;;;;;;;;10507124;28;20036;-76
2022/12/02 17:29:45;;;;;;;17.55;6.30;;;;;;;;;;10516283;28;20179;-75
2022/12/02 17:34:49;;;;;;;11.68;5.03;;;;;;;;;;10507964;28;20119;-75
2022/12/02 17:39:53;;;;;;;16.50;5.68;;;;;;;;;;10516295;28;20039;-75
2022/12/02 17:44:55;;;;;;;15.32;6.05;;;;;;;;;;10514854;28;20036;-76
2022/12/02 17:49:59;;;;;;;16.10;5.53;;;;;;;;;;10519568;28;20048;-76
2022/12/02 17:55:02;;;;;;;12.98;4.45;;;;;;;;;;10493584;28;20131;-76
2022/12/02 18:00:12;;;;;;;16.92;5.72;;;;;;;;;;10521434;28;20036;-76
2022/12/02 18:05:16;;;;;;;20.70;6.65;;;;;;;;;;10517022;28;20032;-76
2022/12/02 18:10:19;;;;;;;19.10;6.53;;;;;;;;;;10536452;28;20036;-75
2022/12/02 18:15:22;;;;;;;15.50;5.85;;;;;;;;;;10528309;28;20081;-77
2022/12/02 18:20:25;;;;;;;18.38;5.80;;;;;;;;;;10496507;28;20043;-77
2022/12/02 18:25:28;;;;;;;14.82;5.10;;;;;;;;;;10527493;28;20052;-77
2022/12/02 18:30:31;;;;;;;19.30;6.15;;;;;;;;;;10521641;28;20044;-77
2022/12/02 18:35:35;;;;;;;19.23;5.90;;;;;;;;;;10522234;28;20055;-77
2022/12/02 18:40:37;;;;;;;18.67;6.68;;;;;;;;;;10514495;28;20035;-77
2022/12/02 18:45:40;;;;;;;20.33;7.03;;;;;;;;;;10530669;28;20620;-77
2022/12/02 18:50:44;;;;;;;19.27;6.85;;;;;;;;;;10496782;28;20078;-77
2022/12/02 18:55:46;;;;;;;21.55;6.30;;;;;;;;;;10522495;28;20064;-78
2022/12/02 19:00:49;;;;;;;18.17;6.28;;;;;;;;;;10523427;28;20556;-77
2022/12/02 19:05:53;;;;;;;21.55;7.65;;;;;;;;;;10530623;28;20040;-77
2022/12/02 19:10:56;;;;;;;16.88;5.57;;;;;;;;;;10513941;28;20387;-76
2022/12/02 19:15:58;;;;;;;15.20;6.63;;;;;;;;;;10526165;28;20426;-77
2022/12/02 19:21:03;;;;;;;14.63;6.03;;;;;;;;;;10519499;28;20124;-76
2022/12/02 19:26:06;;;;;;;18.35;6.03;;;;;;;;;;10523033;28;20114;-76
2022/12/02 19:31:08;;;;;;;20.33;7.68;;;;;;;;;;10519969;28;20566;-77
2022/12/02 19:36:14;;;;;;;6.65;3.33;;;;;;;;;;10527958;28;20496;-77
2022/12/02 19:41:17;;;;;;;23.65;7.15;;;;;;;;;;10514369;28;20048;-78
2022/12/02 19:46:19;;;;;;;18.63;6.07;;;;;;;;;;10531578;28;20036;-76
2022/12/02 19:51:24;;;;;;;24.25;8.73;;;;;;;;;;10536614;28;20039;-77
2022/12/02 19:56:27;;;;;;;23.33;8.70;;;;;;;;;;10529180;28;20040;-75
2022/12/02 20:01:29;;;;;;;19.67;6.68;;;;;;;;;;10526054;28;20040;-76
2022/12/02 20:06:42;;;;;;;23.53;7.73;;;;;;;;;;10511538;28;20044;-77
2022/12/02 20:11:45;;;;;;;26.13;7.45;;;;;;;;;;10517161;28;20058;-77
2022/12/02 20:16:48;;;;;;;20.27;6.85;;;;;;;;;;10515654;28;20047;-76
2022/12/02 20:21:52;;;;;;;19.35;7.30;;;;;;;;;;10517218;28;20135;-77
2022/12/02 20:26:55;;;;;;;23.40;7.22;;;;;;;;;;10525260;28;20047;-76
2022/12/02 20:31:57;;;;;;;25.20;8.60;;;;;;;;;;10520741;28;20067;-77
2022/12/02 20:37:02;;;;;;;24.48;8.23;;;;;;;;;;10511121;28;20032;-77
2022/12/02 20:42:05;;;;;;;21.48;7.93;;;;;;;;;;10516892;28;20127;-77
2022/12/02 20:47:08;;;;;;;24.13;8.82;;;;;;;;;;10520879;28;20048;-76
2022/12/02 20:52:14;;;;;;;20.13;5.80;;;;;;;;;;10515654;28;20072;-77
2022/12/02 20:57:17;;;;;;;23.98;7.75;;;;;;;;;;10512390;28;20064;-77
2022/12/02 21:02:20;;;;;;;22.67;7.80;;;;;;;;;;10505956;28;20036;-77
2022/12/02 21:07:24;;;;;;;24.77;8.07;;;;;;;;;;10519150;28;20067;-76
2022/12/02 21:12:27;;;;;;;19.33;7.45;;;;;;;;;;10507772;28;20577;-77
2022/12/02 21:17:30;;;;;;;26.48;8.95;;;;;;;;;;10515613;28;20433;-78
2022/12/02 21:22:34;;;;;;;24.13;8.18;;;;;;;;;;10525285;28;20044;-76
2022/12/02 21:27:46;;;;;;;31.48;10.63;;;;;;;;;;10525228;28;20048;-76
2022/12/02 21:32:49;;;;;;;31.02;9.05;;;;;;;;;;10519650;28;20044;-76
2022/12/02 21:37:53;;;;;;;25.30;8.10;;;;;;;;;;10524017;28;20057;-76
2022/12/02 21:42:56;;;;;;;21.42;7.63;;;;;;;;;;10516243;28;20516;-77
2022/12/02 21:47:59;;;;;;;23.52;7.05;;;;;;;;;;10531279;28;20040;-77
2022/12/02 21:53:03;;;;;;;32.30;10.65;;;;;;;;;;10509403;28;20063;-76
2022/12/02 21:58:06;;;;;;;30.65;9.52;;;;;;;;;;10497023;28;20044;-76
2022/12/02 22:03:09;;;;;;;29.10;8.95;;;;;;;;;;10521680;28;20039;-76
2022/12/02 22:08:18;;;;;;;28.33;8.80;;;;;;;;;;10522164;28;20426;-76
2022/12/02 22:13:20;;;;;;;;;;;;;;;;;;10522249;28;20075;-76
2022/12/02 22:18:23;;;;;;;29.85;7.57;;;;;;;;;;10518723;28;20444;-76
2022/12/02 22:23:27;;;;;;;29.50;7.72;;;;;;;;;;10520691;28;20049;-76
2022/12/02 22:28:30;;;;;;;19.02;6.43;;;;;;;;;;10525531;28;20217;-76
2022/12/02 22:33:33;;;;;;;25.02;7.78;;;;;;;;;;10520332;28;20395;-76
2022/12/02 22:38:37;;;;;;;28.92;9.32;;;;;;;;;;10509342;28;20051;-77
2022/12/02 22:43:40;;;;;;;24.73;8.18;;;;;;;;;;10523789;28;20056;-76
2022/12/02 22:48:42;;;;;;;25.05;6.78;;;;;;;;;;10519899;28;20510;-75
2022/12/02 22:53:46;;;;;;;22.67;6.57;;;;;;;;;;10513173;28;20144;-76
2022/12/02 22:58:49;;;;;;;16.23;6.57;;;;;;;;;;10515123;28;20505;-76
2022/12/02 23:03:52;;;;;;;29.35;8.13;;;;;;;;;;10502475;28;20039;-77
2022/12/02 23:08:56;;;;;;;23.90;7.30;;;;;;;;;;10515232;28;20109;-76
2022/12/02 23:13:59;;;;;;;32.42;10.02;;;;;;;;;;10505915;28;20486;-76
2022/12/02 23:19:02;;;;;;;31.77;8.95;;;;;;;;;;10514619;28;20039;-76
2022/12/02 23:24:06;;;;;;;34.15;10.70;;;;;;;;;;10517473;28;20040;-76
2022/12/02 23:29:09;;;;;;;46.47;11.93;;;;;;;;;;10516495;28;20046;-77
2022/12/02 23:34:12;;;;;;;27.60;7.25;;;;;;;;;;10510565;28;20053;-76
2022/12/02 23:39:16;;;;;;;21.67;7.37;;;;;;;;;;10518327;28;20117;-76
2022/12/02 23:44:19;;;;;;;11.13;4.90;;;;;;;;;;10520013;28;20115;-76
2022/12/02 23:49:22;;;;;;;21.58;7.43;;;;;;;;;;10518620;28;20147;-76
2022/12/02 23:54:26;;;;;;;25.10;7.78;;;;;;;;;;10512971;28;20539;-76
2022/12/02 23:59:28;;;;;;;27.83;7.15;;;;;;;;;;10513620;28;20113;-76
